sensor_id;sensor_type;location;lat;lon;timestamp;temperature;humidity
9448;DHT22;4762;48.128;11.376;2022-10-16T00:01:46;12.30;99.90
9448;DHT22;4762;48.128;11.376;2022-10-16T00:03:50;12.40;99.90
9448;DHT22;4762;48.128;11.376;2022-10-16T00:05:52;12.40;99.90
9448;DHT22;4762;48.128;11.376;2022-10-16T00:07:58;12.50;99.90
9448;DHT22;4762;48.128;11.376;2022-10-16T00:12:20;12.40;99.90
9448;DHT22;4762;48.128;11.376;2022-10-16T00:14:23;12.40;99.90
9448;DHT22;4762;48.128;11.376;2022-10-16T00:16:27;12.40;99.90
9448;DHT22;4762;48.128;11.376;2022-10-16T00:18:29;12.40;99.90
9448;DHT22;4762;48.128;11.376;2022-10-16T00:20:33;12.40;99.90
9448;DHT22;4762;48.128;11.376;2022-10-16T00:22:38;12.30;99.90
9448;DHT22;4762;48.128;11.376;2022-10-16T00:24:42;12.40;99.90
9448;DHT22;4762;48.128;11.376;2022-10-16T00:26:46;12.40;99.90
9448;DHT22;4762;48.128;11.376;2022-10-16T00:28:50;12.40;99.90
9448;DHT22;4762;48.128;11.376;2022-10-16T00:30:52;12.40;99.90
9448;DHT22;4762;48.128;11.376;2022-10-16T00:32:56;12.40;99.90
9448;DHT22;4762;48.128;11.376;2022-10-16T00:34:59;12.50;99.90
9448;DHT22;4762;48.128;11.376;2022-10-16T00:37:04;12.50;99.90
9448;DHT22;4762;48.128;11.376;2022-10-16T00:39:07;12.50;99.90
9448;DHT22;4762;48.128;11.376;2022-10-16T00:41:13;12.40;99.90
9448;DHT22;4762;48.128;11.376;2022-10-16T00:43:31;12.50;99.90
9448;DHT22;4762;48.128;11.376;2022-10-16T00:45:16;12.50;99.90
9448;DHT22;4762;48.128;11.376;2022-10-16T00:47:24;12.60;99.90
9448;DHT22;4762;48.128;11.376;2022-10-16T00:49:26;12.60;99.90
9448;DHT22;4762;48.128;11.376;2022-10-16T00:51:32;12.50;99.90
9448;DHT22;4762;48.128;11.376;2022-10-16T00:53:32;12.60;99.90
9448;DHT22;4762;48.128;11.376;2022-10-16T00:55:36;12.70;99.90
9448;DHT22;4762;48.128;11.376;2022-10-16T00:57:41;12.60;99.90
9448;DHT22;4762;48.128;11.376;2022-10-16T00:59:43;12.60;99.90
9448;DHT22;4762;48.128;11.376;2022-10-16T01:01:55;12.60;99.90
9448;DHT22;4762;48.128;11.376;2022-10-16T01:03:57;12.60;99.90
9448;DHT22;4762;48.128;11.376;2022-10-16T01:06:15;12.50;99.90
9448;DHT22;4762;48.128;11.376;2022-10-16T01:08:17;12.40;99.90
9448;DHT22;4762;48.128;11.376;2022-10-16T01:32:33;12.30;99.90
9448;DHT22;4762;48.128;11.376;2022-10-16T01:34:42;12.20;99.90
9448;DHT22;4762;48.128;11.376;2022-10-16T01:36:45;12.20;99.90
9448;DHT22;4762;48.128;11.376;2022-10-16T01:38:44;12.10;99.90
9448;DHT22;4762;48.128;11.376;2022-10-16T01:40:49;12.20;99.90
9448;DHT22;4762;48.128;11.376;2022-10-16T01:42:53;12.30;99.90
9448;DHT22;4762;48.128;11.376;2022-10-16T01:44:56;12.20;99.90
9448;DHT22;4762;48.128;11.376;2022-10-16T01:46:58;12.40;99.90
9448;DHT22;4762;48.128;11.376;2022-10-16T01:49:02;12.40;99.90
9448;DHT22;4762;48.128;11.376;2022-10-16T01:51:07;12.30;99.90
9448;DHT22;4762;48.128;11.376;2022-10-16T01:53:12;12.40;99.90
9448;DHT22;4762;48.128;11.376;2022-10-16T01:55:25;12.30;99.90
9448;DHT22;4762;48.128;11.376;2022-10-16T02:15:56;12.60;99.90
9448;DHT22;4762;48.128;11.376;2022-10-16T02:17:59;12.60;99.90
9448;DHT22;4762;48.128;11.376;2022-10-16T02:20:03;12.70;99.90
9448;DHT22;4762;48.128;11.376;2022-10-16T02:22:05;12.70;99.90
9448;DHT22;4762;48.128;11.376;2022-10-16T02:24:19;12.70;99.90
9448;DHT22;4762;48.128;11.376;2022-10-16T02:26:35;12.70;99.90
9448;DHT22;4762;48.128;11.376;2022-10-16T02:28:40;12.70;99.90
9448;DHT22;4762;48.128;11.376;2022-10-16T02:30:49;12.70;99.90
9448;DHT22;4762;48.128;11.376;2022-10-16T02:32:51;12.70;99.90
9448;DHT22;4762;48.128;11.376;2022-10-16T02:34:54;12.70;99.90
9448;DHT22;4762;48.128;11.376;2022-10-16T02:36:56;12.70;99.90
9448;DHT22;4762;48.128;11.376;2022-10-16T02:38:59;12.50;99.90
9448;DHT22;4762;48.128;11.376;2022-10-16T02:41:03;12.50;99.90
9448;DHT22;4762;48.128;11.376;2022-10-16T02:43:05;12.60;99.90
9448;DHT22;4762;48.128;11.376;2022-10-16T02:45:08;12.50;99.90
9448;DHT22;4762;48.128;11.376;2022-10-16T02:47:11;12.50;99.90
9448;DHT22;4762;48.128;11.376;2022-10-16T02:49:14;12.50;99.90
9448;DHT22;4762;48.128;11.376;2022-10-16T02:51:16;12.50;99.90
9448;DHT22;4762;48.128;11.376;2022-10-16T02:53:19;12.40;99.90
9448;DHT22;4762;48.128;11.376;2022-10-16T02:55:22;12.40;99.90
9448;DHT22;4762;48.128;11.376;2022-10-16T02:57:25;12.40;99.90
9448;DHT22;4762;48.128;11.376;2022-10-16T02:59:27;12.20;99.90
9448;DHT22;4762;48.128;11.376;2022-10-16T03:01:31;12.30;99.90
9448;DHT22;4762;48.128;11.376;2022-10-16T03:03:34;12.20;99.90
9448;DHT22;4762;48.128;11.376;2022-10-16T03:05:36;12.20;99.90
9448;DHT22;4762;48.128;11.376;2022-10-16T03:07:40;12.20;99.90
9448;DHT22;4762;48.128;11.376;2022-10-16T03:09:44;12.30;99.90
9448;DHT22;4762;48.128;11.376;2022-10-16T03:11:46;12.30;99.90
9448;DHT22;4762;48.128;11.376;2022-10-16T03:13:50;12.20;99.90
9448;DHT22;4762;48.128;11.376;2022-10-16T03:15:53;12.30;99.90
9448;DHT22;4762;48.128;11.376;2022-10-16T03:17:58;12.50;99.90
9448;DHT22;4762;48.128;11.376;2022-10-16T03:20:00;12.50;99.90
9448;DHT22;4762;48.128;11.376;2022-10-16T03:22:03;12.50;99.90
9448;DHT22;4762;48.128;11.376;2022-10-16T03:24:06;12.50;99.90
9448;DHT22;4762;48.128;11.376;2022-10-16T03:26:10;12.50;99.90
9448;DHT22;4762;48.128;11.376;2022-10-16T03:28:13;12.70;99.90
9448;DHT22;4762;48.128;11.376;2022-10-16T03:30:17;12.70;99.90
9448;DHT22;4762;48.128;11.376;2022-10-16T03:32:19;12.70;99.90
9448;DHT22;4762;48.128;11.376;2022-10-16T03:34:21;12.80;99.90
9448;DHT22;4762;48.128;11.376;2022-10-16T03:36:25;12.90;99.90
9448;DHT22;4762;48.128;11.376;2022-10-16T03:38:28;12.90;99.90
9448;DHT22;4762;48.128;11.376;2022-10-16T03:40:30;13.00;99.90
9448;DHT22;4762;48.128;11.376;2022-10-16T03:42:37;13.00;99.90
9448;DHT22;4762;48.128;11.376;2022-10-16T03:44:39;12.90;99.90
9448;DHT22;4762;48.128;11.376;2022-10-16T03:46:42;12.90;99.90
9448;DHT22;4762;48.128;11.376;2022-10-16T03:48:45;12.90;99.90
9448;DHT22;4762;48.128;11.376;2022-10-16T03:50:55;12.90;99.90
9448;DHT22;4762;48.128;11.376;2022-10-16T03:53:02;13.00;99.90
9448;DHT22;4762;48.128;11.376;2022-10-16T03:55:05;12.90;99.90
9448;DHT22;4762;48.128;11.376;2022-10-16T03:57:10;12.90;99.90
9448;DHT22;4762;48.128;11.376;2022-10-16T03:59:12;13.00;99.90
9448;DHT22;4762;48.128;11.376;2022-10-16T04:01:18;13.10;99.90
9448;DHT22;4762;48.128;11.376;2022-10-16T04:03:21;13.00;99.90
9448;DHT22;4762;48.128;11.376;2022-10-16T04:05:23;13.00;99.90
9448;DHT22;4762;48.128;11.376;2022-10-16T04:07:25;13.00;99.90
9448;DHT22;4762;48.128;11.376;2022-10-16T04:09:34;13.00;99.90
9448;DHT22;4762;48.128;11.376;2022-10-16T04:11:43;13.00;99.90
9448;DHT22;4762;48.128;11.376;2022-10-16T04:13:45;13.00;99.90
9448;DHT22;4762;48.128;11.376;2022-10-16T04:15:49;12.90;99.90
9448;DHT22;4762;48.128;11.376;2022-10-16T04:17:54;13.00;99.90
9448;DHT22;4762;48.128;11.376;2022-10-16T04:19:56;13.10;99.50
9448;DHT22;4762;48.128;11.376;2022-10-16T04:22:04;13.20;99.80
9448;DHT22;4762;48.128;11.376;2022-10-16T04:26:27;13.00;99.90
9448;DHT22;4762;48.128;11.376;2022-10-16T04:28:32;13.10;99.90
9448;DHT22;4762;48.128;11.376;2022-10-16T04:30:39;13.00;99.90
9448;DHT22;4762;48.128;11.376;2022-10-16T04:32:49;13.00;99.90
9448;DHT22;4762;48.128;11.376;2022-10-16T04:34:52;13.10;99.60
9448;DHT22;4762;48.128;11.376;2022-10-16T04:36:55;13.10;99.80
9448;DHT22;4762;48.128;11.376;2022-10-16T04:38:58;13.20;99.30
9448;DHT22;4762;48.128;11.376;2022-10-16T04:41:01;13.10;99.70
9448;DHT22;4762;48.128;11.376;2022-10-16T04:43:05;13.20;99.70
9448;DHT22;4762;48.128;11.376;2022-10-16T04:45:09;13.20;99.50
9448;DHT22;4762;48.128;11.376;2022-10-16T04:47:16;13.20;99.60
9448;DHT22;4762;48.128;11.376;2022-10-16T04:49:19;13.10;99.70
9448;DHT22;4762;48.128;11.376;2022-10-16T04:51:21;13.20;99.80
9448;DHT22;4762;48.128;11.376;2022-10-16T04:53:24;13.10;99.70
9448;DHT22;4762;48.128;11.376;2022-10-16T04:55:27;13.10;99.70
9448;DHT22;4762;48.128;11.376;2022-10-16T04:57:29;13.10;99.80
9448;DHT22;4762;48.128;11.376;2022-10-16T04:59:32;13.10;99.70
9448;DHT22;4762;48.128;11.376;2022-10-16T05:01:37;13.10;99.80
9448;DHT22;4762;48.128;11.376;2022-10-16T05:03:40;13.10;99.60
9448;DHT22;4762;48.128;11.376;2022-10-16T05:05:44;13.10;99.80
9448;DHT22;4762;48.128;11.376;2022-10-16T05:07:47;13.10;99.50
9448;DHT22;4762;48.128;11.376;2022-10-16T05:09:50;13.20;99.20
9448;DHT22;4762;48.128;11.376;2022-10-16T05:11:53;13.20;99.70
9448;DHT22;4762;48.128;11.376;2022-10-16T05:13:56;13.10;99.40
9448;DHT22;4762;48.128;11.376;2022-10-16T05:15:59;13.20;99.40
9448;DHT22;4762;48.128;11.376;2022-10-16T05:18:02;13.20;99.50
9448;DHT22;4762;48.128;11.376;2022-10-16T05:20:05;13.10;99.80
9448;DHT22;4762;48.128;11.376;2022-10-16T05:22:09;13.20;99.50
9448;DHT22;4762;48.128;11.376;2022-10-16T05:24:12;13.10;99.50
9448;DHT22;4762;48.128;11.376;2022-10-16T05:26:15;13.10;99.30
9448;DHT22;4762;48.128;11.376;2022-10-16T05:28:17;13.10;99.70
9448;DHT22;4762;48.128;11.376;2022-10-16T05:30:21;13.10;99.60
9448;DHT22;4762;48.128;11.376;2022-10-16T05:32:26;13.00;99.40
9448;DHT22;4762;48.128;11.376;2022-10-16T05:34:30;13.10;99.40
9448;DHT22;4762;48.128;11.376;2022-10-16T05:36:33;13.10;99.40
9448;DHT22;4762;48.128;11.376;2022-10-16T05:38:36;13.10;99.40
9448;DHT22;4762;48.128;11.376;2022-10-16T05:40:38;13.10;99.30
9448;DHT22;4762;48.128;11.376;2022-10-16T05:42:42;13.10;99.30
9448;DHT22;4762;48.128;11.376;2022-10-16T05:44:46;13.00;99.10
9448;DHT22;4762;48.128;11.376;2022-10-16T05:46:49;13.00;99.00
9448;DHT22;4762;48.128;11.376;2022-10-16T05:48:53;13.00;98.60
9448;DHT22;4762;48.128;11.376;2022-10-16T05:50:57;13.10;98.70
9448;DHT22;4762;48.128;11.376;2022-10-16T05:52:58;13.10;98.80
9448;DHT22;4762;48.128;11.376;2022-10-16T05:55:02;13.10;98.60
9448;DHT22;4762;48.128;11.376;2022-10-16T05:57:05;13.00;98.80
9448;DHT22;4762;48.128;11.376;2022-10-16T05:59:07;13.10;98.40
9448;DHT22;4762;48.128;11.376;2022-10-16T06:01:15;13.20;98.50
9448;DHT22;4762;48.128;11.376;2022-10-16T06:03:18;13.20;98.30
9448;DHT22;4762;48.128;11.376;2022-10-16T06:32:32;13.30;98.60
9448;DHT22;4762;48.128;11.376;2022-10-16T06:34:38;13.20;97.90
9448;DHT22;4762;48.128;11.376;2022-10-16T06:36:40;13.20;98.10
9448;DHT22;4762;48.128;11.376;2022-10-16T06:38:44;13.20;98.30
9448;DHT22;4762;48.128;11.376;2022-10-16T06:40:48;13.20;98.30
9448;DHT22;4762;48.128;11.376;2022-10-16T06:42:51;13.20;98.30
9448;DHT22;4762;48.128;11.376;2022-10-16T06:44:55;13.30;98.50
9448;DHT22;4762;48.128;11.376;2022-10-16T06:47:00;13.20;97.90
9448;DHT22;4762;48.128;11.376;2022-10-16T06:49:13;13.30;98.20
9448;DHT22;4762;48.128;11.376;2022-10-16T06:51:17;13.30;98.10
9448;DHT22;4762;48.128;11.376;2022-10-16T06:53:20;13.30;98.20
9448;DHT22;4762;48.128;11.376;2022-10-16T06:55:22;13.30;98.20
9448;DHT22;4762;48.128;11.376;2022-10-16T06:57:26;13.40;98.50
9448;DHT22;4762;48.128;11.376;2022-10-16T06:59:29;13.40;98.60
9448;DHT22;4762;48.128;11.376;2022-10-16T07:01:31;13.50;98.70
9448;DHT22;4762;48.128;11.376;2022-10-16T07:13:22;14.40;97.10
9448;DHT22;4762;48.128;11.376;2022-10-16T07:15:24;14.80;97.00
9448;DHT22;4762;48.128;11.376;2022-10-16T07:29:43;15.30;95.20
9448;DHT22;4762;48.128;11.376;2022-10-16T07:31:46;15.50;94.50
9448;DHT22;4762;48.128;11.376;2022-10-16T07:33:48;15.80;95.10
9448;DHT22;4762;48.128;11.376;2022-10-16T07:35:52;15.70;91.40
9448;DHT22;4762;48.128;11.376;2022-10-16T07:37:54;16.00;93.80
9448;DHT22;4762;48.128;11.376;2022-10-16T07:40:01;16.50;93.20
9448;DHT22;4762;48.128;11.376;2022-10-16T07:42:05;17.00;91.70
9448;DHT22;4762;48.128;11.376;2022-10-16T07:44:08;17.20;89.90
9448;DHT22;4762;48.128;11.376;2022-10-16T07:46:11;17.30;87.10
9448;DHT22;4762;48.128;11.376;2022-10-16T07:48:16;17.60;89.10
9448;DHT22;4762;48.128;11.376;2022-10-16T07:50:20;17.90;87.50
9448;DHT22;4762;48.128;11.376;2022-10-16T07:52:23;18.20;88.50
9448;DHT22;4762;48.128;11.376;2022-10-16T07:54:26;18.60;85.80
9448;DHT22;4762;48.128;11.376;2022-10-16T07:56:30;18.90;83.70
9448;DHT22;4762;48.128;11.376;2022-10-16T07:58:31;18.80;83.70
9448;DHT22;4762;48.128;11.376;2022-10-16T08:00:33;18.90;83.60
9448;DHT22;4762;48.128;11.376;2022-10-16T08:02:36;19.40;83.80
9448;DHT22;4762;48.128;11.376;2022-10-16T08:04:38;19.60;81.70
9448;DHT22;4762;48.128;11.376;2022-10-16T08:06:43;19.40;81.90
9448;DHT22;4762;48.128;11.376;2022-10-16T08:08:46;20.10;81.70
9448;DHT22;4762;48.128;11.376;2022-10-16T08:10:50;20.30;81.50
9448;DHT22;4762;48.128;11.376;2022-10-16T08:12:54;20.30;82.90
9448;DHT22;4762;48.128;11.376;2022-10-16T08:14:56;20.40;80.00
9448;DHT22;4762;48.128;11.376;2022-10-16T08:17:00;20.30;78.50
9448;DHT22;4762;48.128;11.376;2022-10-16T08:27:04;21.20;79.30
9448;DHT22;4762;48.128;11.376;2022-10-16T08:29:10;21.50;79.10
9448;DHT22;4762;48.128;11.376;2022-10-16T08:31:13;21.90;78.60
9448;DHT22;4762;48.128;11.376;2022-10-16T08:33:15;21.70;77.30
9448;DHT22;4762;48.128;11.376;2022-10-16T08:35:17;22.20;77.10
9448;DHT22;4762;48.128;11.376;2022-10-16T08:37:20;22.50;76.40
9448;DHT22;4762;48.128;11.376;2022-10-16T08:39:22;22.50;78.60
9448;DHT22;4762;48.128;11.376;2022-10-16T08:41:32;22.50;74.90
9448;DHT22;4762;48.128;11.376;2022-10-16T08:43:35;22.60;75.60
9448;DHT22;4762;48.128;11.376;2022-10-16T08:45:44;22.80;72.50
9448;DHT22;4762;48.128;11.376;2022-10-16T08:47:58;22.90;76.50
9448;DHT22;4762;48.128;11.376;2022-10-16T08:50:02;23.30;72.90
9448;DHT22;4762;48.128;11.376;2022-10-16T08:52:03;23.50;71.20
9448;DHT22;4762;48.128;11.376;2022-10-16T08:54:32;23.70;72.50
9448;DHT22;4762;48.128;11.376;2022-10-16T08:56:33;23.10;74.30
9448;DHT22;4762;48.128;11.376;2022-10-16T08:58:36;23.70;72.40
9448;DHT22;4762;48.128;11.376;2022-10-16T09:00:39;23.60;72.50
9448;DHT22;4762;48.128;11.376;2022-10-16T09:02:58;23.40;70.30
9448;DHT22;4762;48.128;11.376;2022-10-16T09:07:20;24.10;68.20
9448;DHT22;4762;48.128;11.376;2022-10-16T09:09:38;24.70;69.00
9448;DHT22;4762;48.128;11.376;2022-10-16T09:16:31;24.80;66.50
9448;DHT22;4762;48.128;11.376;2022-10-16T09:18:48;24.30;68.00
9448;DHT22;4762;48.128;11.376;2022-10-16T09:23:13;24.30;66.60
9448;DHT22;4762;48.128;11.376;2022-10-16T09:25:16;24.80;69.00
9448;DHT22;4762;48.128;11.376;2022-10-16T09:27:17;24.20;67.90
9448;DHT22;4762;48.128;11.376;2022-10-16T09:29:21;24.00;66.70
9448;DHT22;4762;48.128;11.376;2022-10-16T09:31:23;24.60;68.00
9448;DHT22;4762;48.128;11.376;2022-10-16T09:33:29;25.00;66.90
9448;DHT22;4762;48.128;11.376;2022-10-16T09:35:33;24.40;66.80
9448;DHT22;4762;48.128;11.376;2022-10-16T09:37:38;25.10;65.70
9448;DHT22;4762;48.128;11.376;2022-10-16T09:39:48;25.00;64.40
9448;DHT22;4762;48.128;11.376;2022-10-16T09:41:50;24.90;64.80
9448;DHT22;4762;48.128;11.376;2022-10-16T09:43:55;24.90;65.30
9448;DHT22;4762;48.128;11.376;2022-10-16T09:45:58;24.80;66.10
9448;DHT22;4762;48.128;11.376;2022-10-16T09:48:01;25.40;65.40
9448;DHT22;4762;48.128;11.376;2022-10-16T09:50:05;25.60;66.00
9448;DHT22;4762;48.128;11.376;2022-10-16T09:52:12;25.00;65.10
9448;DHT22;4762;48.128;11.376;2022-10-16T09:54:15;25.10;65.40
9448;DHT22;4762;48.128;11.376;2022-10-16T09:56:23;25.10;65.50
9448;DHT22;4762;48.128;11.376;2022-10-16T09:58:24;25.90;63.50
9448;DHT22;4762;48.128;11.376;2022-10-16T10:00:27;25.20;63.50
9448;DHT22;4762;48.128;11.376;2022-10-16T10:02:35;25.60;64.20
9448;DHT22;4762;48.128;11.376;2022-10-16T10:04:39;26.80;63.10
9448;DHT22;4762;48.128;11.376;2022-10-16T10:06:44;26.80;59.40
9448;DHT22;4762;48.128;11.376;2022-10-16T10:08:53;26.00;62.50
9448;DHT22;4762;48.128;11.376;2022-10-16T10:10:55;26.40;61.20
9448;DHT22;4762;48.128;11.376;2022-10-16T10:12:58;26.80;62.20
9448;DHT22;4762;48.128;11.376;2022-10-16T10:15:07;26.60;61.20
9448;DHT22;4762;48.128;11.376;2022-10-16T10:17:15;26.90;59.10
9448;DHT22;4762;48.128;11.376;2022-10-16T10:19:21;26.00;62.20
9448;DHT22;4762;48.128;11.376;2022-10-16T10:21:24;26.20;60.90
9448;DHT22;4762;48.128;11.376;2022-10-16T10:23:28;26.80;60.00
9448;DHT22;4762;48.128;11.376;2022-10-16T10:25:35;26.10;60.40
9448;DHT22;4762;48.128;11.376;2022-10-16T10:28:47;25.60;61.10
9448;DHT22;4762;48.128;11.376;2022-10-16T10:30:01;26.10;61.70
9448;DHT22;4762;48.128;11.376;2022-10-16T10:32:09;26.70;59.30
9448;DHT22;4762;48.128;11.376;2022-10-16T10:36:39;27.30;60.00
9448;DHT22;4762;48.128;11.376;2022-10-16T10:38:51;27.30;58.50
9448;DHT22;4762;48.128;11.376;2022-10-16T10:40:58;27.90;58.30
9448;DHT22;4762;48.128;11.376;2022-10-16T10:46:09;27.80;61.20
9448;DHT22;4762;48.128;11.376;2022-10-16T10:48:17;28.20;57.20
9448;DHT22;4762;48.128;11.376;2022-10-16T10:50:22;27.90;57.30
9448;DHT22;4762;48.128;11.376;2022-10-16T10:52:34;27.20;57.10
9448;DHT22;4762;48.128;11.376;2022-10-16T10:55:00;27.10;57.30
9448;DHT22;4762;48.128;11.376;2022-10-16T10:57:02;27.50;56.50
9448;DHT22;4762;48.128;11.376;2022-10-16T10:59:28;27.80;57.60
9448;DHT22;4762;48.128;11.376;2022-10-16T11:01:34;27.40;57.40
9448;DHT22;4762;48.128;11.376;2022-10-16T11:03:46;27.70;58.10
9448;DHT22;4762;48.128;11.376;2022-10-16T11:05:55;28.40;56.30
9448;DHT22;4762;48.128;11.376;2022-10-16T11:07:58;28.80;56.10
9448;DHT22;4762;48.128;11.376;2022-10-16T11:10:19;27.80;54.90
9448;DHT22;4762;48.128;11.376;2022-10-16T11:12:24;28.30;56.00
9448;DHT22;4762;48.128;11.376;2022-10-16T11:14:30;28.90;54.40
9448;DHT22;4762;48.128;11.376;2022-10-16T11:16:43;28.30;55.20
9448;DHT22;4762;48.128;11.376;2022-10-16T11:18:52;29.30;54.00
9448;DHT22;4762;48.128;11.376;2022-10-16T11:20:57;29.50;52.30
9448;DHT22;4762;48.128;11.376;2022-10-16T11:23:12;29.90;53.10
9448;DHT22;4762;48.128;11.376;2022-10-16T11:25:26;28.10;54.00
9448;DHT22;4762;48.128;11.376;2022-10-16T11:29:54;28.40;55.60
9448;DHT22;4762;48.128;11.376;2022-10-16T11:31:59;29.00;53.60
9448;DHT22;4762;48.128;11.376;2022-10-16T11:36:42;27.90;53.80
9448;DHT22;4762;48.128;11.376;2022-10-16T11:38:52;28.10;53.70
9448;DHT22;4762;48.128;11.376;2022-10-16T11:40:54;28.30;55.20
9448;DHT22;4762;48.128;11.376;2022-10-16T11:43:15;28.70;54.80
9448;DHT22;4762;48.128;11.376;2022-10-16T11:45:36;28.50;53.30
9448;DHT22;4762;48.128;11.376;2022-10-16T11:47:39;28.00;52.00
9448;DHT22;4762;48.128;11.376;2022-10-16T11:49:38;27.90;54.80
9448;DHT22;4762;48.128;11.376;2022-10-16T11:51:43;28.00;54.20
9448;DHT22;4762;48.128;11.376;2022-10-16T11:53:46;29.10;50.70
9448;DHT22;4762;48.128;11.376;2022-10-16T11:55:48;28.20;51.40
9448;DHT22;4762;48.128;11.376;2022-10-16T11:57:58;28.30;49.80
9448;DHT22;4762;48.128;11.376;2022-10-16T12:00:05;28.30;50.30
9448;DHT22;4762;48.128;11.376;2022-10-16T12:02:28;28.30;49.10
9448;DHT22;4762;48.128;11.376;2022-10-16T12:04:36;28.20;50.60
9448;DHT22;4762;48.128;11.376;2022-10-16T12:06:44;29.10;51.60
9448;DHT22;4762;48.128;11.376;2022-10-16T12:08:46;29.50;48.70
9448;DHT22;4762;48.128;11.376;2022-10-16T12:10:51;28.30;49.00
9448;DHT22;4762;48.128;11.376;2022-10-16T12:12:55;28.70;48.80
9448;DHT22;4762;48.128;11.376;2022-10-16T12:15:00;29.60;48.60
9448;DHT22;4762;48.128;11.376;2022-10-16T12:17:04;28.50;49.10
9448;DHT22;4762;48.128;11.376;2022-10-16T12:19:11;28.80;49.40
9448;DHT22;4762;48.128;11.376;2022-10-16T12:21:13;28.00;48.40
9448;DHT22;4762;48.128;11.376;2022-10-16T12:23:19;27.80;50.40
9448;DHT22;4762;48.128;11.376;2022-10-16T12:25:24;28.70;49.00
9448;DHT22;4762;48.128;11.376;2022-10-16T12:27:30;27.80;48.60
9448;DHT22;4762;48.128;11.376;2022-10-16T12:29:37;26.80;48.80
9448;DHT22;4762;48.128;11.376;2022-10-16T12:31:42;26.80;49.90
9448;DHT22;4762;48.128;11.376;2022-10-16T12:33:56;27.50;49.30
9448;DHT22;4762;48.128;11.376;2022-10-16T12:36:03;28.50;50.00
9448;DHT22;4762;48.128;11.376;2022-10-16T12:48:42;28.10;48.80
9448;DHT22;4762;48.128;11.376;2022-10-16T12:50:43;28.80;48.10
9448;DHT22;4762;48.128;11.376;2022-10-16T12:52:51;28.80;48.90
9448;DHT22;4762;48.128;11.376;2022-10-16T12:54:56;29.20;47.80
9448;DHT22;4762;48.128;11.376;2022-10-16T12:58:13;29.30;47.10
9448;DHT22;4762;48.128;11.376;2022-10-16T12:59:31;28.90;49.10
9448;DHT22;4762;48.128;11.376;2022-10-16T13:06:51;29.10;47.20
9448;DHT22;4762;48.128;11.376;2022-10-16T13:13:30;30.50;46.60
9448;DHT22;4762;48.128;11.376;2022-10-16T13:15:48;29.30;45.90
9448;DHT22;4762;48.128;11.376;2022-10-16T13:17:53;29.10;48.00
9448;DHT22;4762;48.128;11.376;2022-10-16T13:25:01;29.50;48.40
9448;DHT22;4762;48.128;11.376;2022-10-16T13:27:07;28.70;49.80
9448;DHT22;4762;48.128;11.376;2022-10-16T13:29:06;29.10;49.10
9448;DHT22;4762;48.128;11.376;2022-10-16T13:31:12;28.90;49.00
9448;DHT22;4762;48.128;11.376;2022-10-16T13:33:17;28.00;50.10
9448;DHT22;4762;48.128;11.376;2022-10-16T13:35:21;28.00;49.10
9448;DHT22;4762;48.128;11.376;2022-10-16T13:37:22;28.50;48.10
9448;DHT22;4762;48.128;11.376;2022-10-16T13:39:27;27.00;50.20
9448;DHT22;4762;48.128;11.376;2022-10-16T13:41:30;27.60;50.80
9448;DHT22;4762;48.128;11.376;2022-10-16T13:43:39;28.30;51.60
9448;DHT22;4762;48.128;11.376;2022-10-16T13:45:40;28.60;49.10
9448;DHT22;4762;48.128;11.376;2022-10-16T13:47:43;27.80;51.80
9448;DHT22;4762;48.128;11.376;2022-10-16T13:49:47;28.30;50.90
9448;DHT22;4762;48.128;11.376;2022-10-16T13:51:56;28.80;49.00
9448;DHT22;4762;48.128;11.376;2022-10-16T13:53:58;29.10;50.00
9448;DHT22;4762;48.128;11.376;2022-10-16T13:56:02;29.60;48.30
9448;DHT22;4762;48.128;11.376;2022-10-16T13:58:10;29.50;48.10
9448;DHT22;4762;48.128;11.376;2022-10-16T14:00:28;28.60;49.20
9448;DHT22;4762;48.128;11.376;2022-10-16T14:02:33;28.70;52.10
9448;DHT22;4762;48.128;11.376;2022-10-16T14:04:34;28.60;48.60
9448;DHT22;4762;48.128;11.376;2022-10-16T14:06:36;28.70;50.30
9448;DHT22;4762;48.128;11.376;2022-10-16T14:08:41;29.10;50.40
9448;DHT22;4762;48.128;11.376;2022-10-16T14:10:41;28.70;49.00
9448;DHT22;4762;48.128;11.376;2022-10-16T14:12:45;28.20;52.40
9448;DHT22;4762;48.128;11.376;2022-10-16T14:14:48;28.90;51.70
9448;DHT22;4762;48.128;11.376;2022-10-16T14:16:49;29.80;49.40
9448;DHT22;4762;48.128;11.376;2022-10-16T14:19:05;29.50;47.20
9448;DHT22;4762;48.128;11.376;2022-10-16T14:21:11;28.70;48.90
9448;DHT22;4762;48.128;11.376;2022-10-16T14:23:22;29.10;47.00
9448;DHT22;4762;48.128;11.376;2022-10-16T14:25:25;29.10;47.30
9448;DHT22;4762;48.128;11.376;2022-10-16T14:27:31;28.30;50.30
9448;DHT22;4762;48.128;11.376;2022-10-16T14:29:33;28.50;50.10
9448;DHT22;4762;48.128;11.376;2022-10-16T14:31:35;28.60;49.50
9448;DHT22;4762;48.128;11.376;2022-10-16T14:33:38;28.50;51.60
9448;DHT22;4762;48.128;11.376;2022-10-16T14:35:44;29.20;49.40
9448;DHT22;4762;48.128;11.376;2022-10-16T14:37:50;28.30;49.60
9448;DHT22;4762;48.128;11.376;2022-10-16T14:39:49;27.90;52.00
9448;DHT22;4762;48.128;11.376;2022-10-16T14:41:54;27.80;49.70
9448;DHT22;4762;48.128;11.376;2022-10-16T14:43:56;27.90;51.90
9448;DHT22;4762;48.128;11.376;2022-10-16T14:45:58;27.80;50.70
9448;DHT22;4762;48.128;11.376;2022-10-16T14:48:01;27.60;52.10
9448;DHT22;4762;48.128;11.376;2022-10-16T14:50:04;27.40;52.00
9448;DHT22;4762;48.128;11.376;2022-10-16T14:52:10;27.10;52.90
9448;DHT22;4762;48.128;11.376;2022-10-16T14:54:12;27.40;51.40
9448;DHT22;4762;48.128;11.376;2022-10-16T14:56:17;27.10;53.60
9448;DHT22;4762;48.128;11.376;2022-10-16T14:58:20;27.20;54.90
9448;DHT22;4762;48.128;11.376;2022-10-16T15:00:22;27.00;54.00
9448;DHT22;4762;48.128;11.376;2022-10-16T15:02:31;27.00;53.10
9448;DHT22;4762;48.128;11.376;2022-10-16T15:04:33;27.00;54.00
9448;DHT22;4762;48.128;11.376;2022-10-16T15:06:35;27.00;54.50
9448;DHT22;4762;48.128;11.376;2022-10-16T15:08:38;26.90;52.70
9448;DHT22;4762;48.128;11.376;2022-10-16T15:10:41;26.70;54.90
9448;DHT22;4762;48.128;11.376;2022-10-16T15:12:42;26.30;54.10
9448;DHT22;4762;48.128;11.376;2022-10-16T15:14:46;26.40;55.00
9448;DHT22;4762;48.128;11.376;2022-10-16T15:16:50;26.30;57.50
9448;DHT22;4762;48.128;11.376;2022-10-16T15:18:59;26.20;55.50
9448;DHT22;4762;48.128;11.376;2022-10-16T15:21:02;25.80;54.60
9448;DHT22;4762;48.128;11.376;2022-10-16T15:23:19;25.60;55.80
9448;DHT22;4762;48.128;11.376;2022-10-16T15:25:30;25.10;57.50
9448;DHT22;4762;48.128;11.376;2022-10-16T15:27:31;25.10;57.80
9448;DHT22;4762;48.128;11.376;2022-10-16T15:46:53;24.40;60.80
9448;DHT22;4762;48.128;11.376;2022-10-16T15:48:57;24.30;61.10
9448;DHT22;4762;48.128;11.376;2022-10-16T15:51:17;23.90;60.80
9448;DHT22;4762;48.128;11.376;2022-10-16T15:53:21;23.70;63.20
9448;DHT22;4762;48.128;11.376;2022-10-16T15:55:31;23.50;63.50
9448;DHT22;4762;48.128;11.376;2022-10-16T15:57:38;23.60;63.20
9448;DHT22;4762;48.128;11.376;2022-10-16T15:59:48;23.50;64.50
9448;DHT22;4762;48.128;11.376;2022-10-16T16:02:00;23.40;63.40
9448;DHT22;4762;48.128;11.376;2022-10-16T16:04:09;23.10;65.00
9448;DHT22;4762;48.128;11.376;2022-10-16T16:06:13;23.00;64.60
9448;DHT22;4762;48.128;11.376;2022-10-16T16:08:21;22.90;64.80